Rijeka, Croatia

01:14 PM CEST am 26. März 2017 (GMT +0200)
Rijeka | | Change Station

Höhe 279 ft 45.22 °N, 14.58 °E | Updated 14 minutes ago

Scattered Clouds
Teils Wolkig
54 °F
gefühlte 54 °F
N
16
Wind Wechselnd Wind aus Ost-Nordost

Heute
Max. -- | schwach -- °F
--% Regenrisiko
Gestern
Max. -- | schwach -- °F
Precip. -- inch
Druck 30.04 inch
Sichtweite 6.2 Meilen
Wolken Teils Wolkig 4200 ft
Taupunkt 28 °F
Feuchtigkeit 38%
Regen 0.00 inch
Schneehöhe Nicht verfügbar..
6:53 AM 7:21 PM
Letztes Viertel, 4% visible
METAR LDRI 261100Z 06014KT 9999 SCT042 12/M02 Q1017
Druck 30.04 inch
Sichtweite 6.2 Meilen
Wolken Teils Wolkig 4200 ft
Taupunkt 28 °F
Feuchtigkeit 38%
Regen 0.00 inch
Schneehöhe Nicht verfügbar..
6:53 AM 7:21 PM
Letztes Viertel, 4% visible
METAR LDRI 261100Z 06014KT 9999 SCT042 12/M02 Q1017

Get Severe Weather Alerts

Thanks for signing up!

Be on the lookout for a verification email in your inbox.

You'll start receiving the daily forecast at 8 AM.

×

10-Day Weather Forecast

×

Almanac

Astronomie

Mar. 26, 2017 Aufgang Untergang
Genaue Zeit
Bürgerliche Dämmerung
Nautische Dämmerung
Astronomische Dämmerung
Mond
Länge des sichtbaren Lichts
Tageslänge
Tomorrow will be .
, % of the Moon is Illuminated

Heutige Rekorde

Country Highs Country Lows

Community

WunderPhotos

Upload Photos

1,962,540 Fotos hochgeladen!

WunderBlog® & News

Nearby

Luftqualität

  Luftqualität LQ Index Schadstoff
Not available.

Schneehöhe

Station Depth Höhe

Erdbebenaktivität

Stadt Distance Mag. Time & Date
Minimum magnitude displayed is 2.5.

Erdbebenaktivität

Stadt Distance Mag. Time & Date
Minimum magnitude displayed is 2.5.

küstennahe Wassertemperaturen

Ort Temperatur

Stations

Wetterstationen in der Umgebung

Stationsstandort Temp. Windchill Taupunkt Feuchtigkeit Wind Precip. Höhe Aktualisiert Art